Time;durP1;ratioP1;P1;durP2;ratioP2;P2;SDS_P1;SDS_P2;PMS_P1;PMS_P2;Temp;Humidity;BMP_temperature;BMP_pressure;BME280_temperature;BME280_humidity;BME280_pressure;Samples;Min_cycle;Max_cycle;Signal;HPM_P1;HPM_P2
2024/01/21 00:01:24;;;;;;;0.73;0.73;;;1.70;99.90;;;;;;5009486;28;20025;-75
2024/01/21 00:03:49;;;;;;;2.05;1.30;;;1.50;99.90;;;;;;5017809;28;20038;-76
2024/01/21 00:06:15;;;;;;;1.70;1.25;;;1.60;99.90;;;;;;5005730;28;20018;-76
2024/01/21 00:08:41;;;;;;;1.02;0.65;;;1.60;99.90;;;;;;5000261;28;20026;-77
2024/01/21 00:11:07;;;;;;;0.65;0.65;;;1.60;99.90;;;;;;5001471;28;20029;-76
2024/01/21 00:13:34;;;;;;;0.20;0.20;;;1.70;99.90;;;;;;5015591;28;20414;-75
2024/01/21 00:16:00;;;;;;;0.28;0.28;;;1.70;99.90;;;;;;5011692;28;20041;-75
2024/01/21 00:18:25;;;;;;;5.72;2.10;;;1.70;99.90;;;;;;5003565;28;20026;-76
2024/01/21 00:20:51;;;;;;;0.55;0.55;;;1.80;99.90;;;;;;5029702;28;20030;-77
2024/01/21 00:23:17;;;;;;;7.32;2.53;;;2.00;99.90;;;;;;5011900;28;20021;-76
2024/01/21 00:25:43;;;;;;;0.32;0.32;;;1.90;99.90;;;;;;5009965;28;20041;-76
2024/01/21 00:28:09;;;;;;;3.10;0.95;;;1.80;99.90;;;;;;5007894;28;20033;-76
2024/01/21 00:30:35;;;;;;;0.25;0.25;;;1.80;99.90;;;;;;5008959;28;20467;-76
2024/01/21 00:33:00;;;;;;;1.80;1.67;;;1.80;99.90;;;;;;5004931;28;20038;-76
2024/01/21 00:35:26;;;;;;;1.95;0.93;;;1.80;99.90;;;;;;5006916;28;20021;-75
2024/01/21 00:37:52;;;;;;;1.13;1.02;;;1.80;99.90;;;;;;5000730;28;20498;-76
2024/01/21 00:40:18;;;;;;;0.73;0.73;;;1.80;99.90;;;;;;5006041;28;20113;-76
2024/01/21 00:42:44;;;;;;;4.43;2.25;;;1.80;99.90;;;;;;5005469;28;20027;-76
2024/01/21 00:45:10;;;;;;;5.18;1.95;;;1.80;99.90;;;;;;5015268;28;20022;-76
2024/01/21 00:47:36;;;;;;;0.55;0.55;;;1.80;99.90;;;;;;4995777;28;20041;-76
2024/01/21 00:50:03;;;;;;;0.10;0.10;;;1.80;99.90;;;;;;5022675;28;20112;-76
2024/01/21 00:52:28;;;;;;;1.73;1.25;;;1.80;99.90;;;;;;5013037;28;20041;-75
2024/01/21 00:54:54;;;;;;;2.10;0.77;;;1.90;99.90;;;;;;5013204;28;20518;-76
2024/01/21 00:57:20;;;;;;;4.15;1.83;;;1.90;99.90;;;;;;5006392;28;20080;-76
2024/01/21 00:59:46;;;;;;;0.28;0.28;;;1.80;99.90;;;;;;5013023;28;20394;-76
2024/01/21 01:02:13;;;;;;;1.77;0.98;;;1.80;99.90;;;;;;5002415;28;20118;-76
2024/01/21 01:04:39;;;;;;;2.42;1.70;;;1.80;99.90;;;;;;5013963;28;20054;-76
2024/01/21 01:07:05;;;;;;;3.58;1.88;;;1.90;99.90;;;;;;5015033;28;20026;-76
2024/01/21 01:09:31;;;;;;;2.15;1.95;;;1.80;99.90;;;;;;5017435;28;20030;-76
2024/01/21 01:11:57;;;;;;;5.80;2.97;;;1.80;99.90;;;;;;4997877;28;20047;-76
2024/01/21 01:14:23;;;;;;;7.03;2.25;;;1.80;99.90;;;;;;4998708;28;20030;-75
2024/01/21 01:16:49;;;;;;;3.30;1.08;;;1.80;99.90;;;;;;4996001;28;20037;-76
2024/01/21 01:19:15;;;;;;;0.68;0.68;;;1.80;99.90;;;;;;4995529;28;20026;-76
2024/01/21 01:21:41;;;;;;;8.23;4.50;;;1.80;99.90;;;;;;5013938;28;20391;-75
2024/01/21 01:24:06;;;;;;;3.92;1.77;;;1.90;99.90;;;;;;5011066;28;20076;-75
2024/01/21 01:26:32;;;;;;;1.95;1.80;;;1.90;99.90;;;;;;5009729;28;20050;-76
2024/01/21 01:28:58;;;;;;;1.13;1.05;;;1.90;99.90;;;;;;5008780;28;20032;-76
2024/01/21 01:31:24;;;;;;;5.70;1.90;;;1.90;99.90;;;;;;5007772;28;20081;-76
2024/01/21 01:33:51;;;;;;;2.97;1.25;;;1.90;99.90;;;;;;5011948;28;20041;-76
2024/01/21 01:36:16;;;;;;;3.47;1.15;;;1.90;99.90;;;;;;5012809;28;20022;-76
2024/01/21 01:38:42;;;;;;;3.40;1.52;;;2.00;99.90;;;;;;5010930;28;20406;-77
2024/01/21 01:41:08;;;;;;;0.30;0.30;;;1.90;99.90;;;;;;5013454;28;20025;-76
2024/01/21 01:43:34;;;;;;;1.23;1.13;;;2.00;99.90;;;;;;5011999;28;20455;-76
2024/01/21 01:46:00;;;;;;;0.50;0.50;;;1.90;99.90;;;;;;5011390;28;20493;-76
2024/01/21 01:48:31;;;;;;;0.40;0.40;;;1.90;99.90;;;;;;5006734;28;20079;-76
2024/01/21 01:50:59;;;;;;;4.40;2.50;;;2.10;99.90;;;;;;5012118;28;20053;-77
2024/01/21 01:53:25;;;;;;;2.05;1.58;;;2.00;99.90;;;;;;5010715;28;20037;-77
2024/01/21 01:55:51;;;;;;;0.25;0.25;;;2.00;99.90;;;;;;4976922;28;20034;-77
2024/01/21 01:58:18;;;;;;;2.08;0.82;;;2.10;99.90;;;;;;5022139;28;20033;-76
2024/01/21 02:00:47;;;;;;;1.05;0.73;;;2.10;99.90;;;;;;5021450;28;20030;-77
2024/01/21 02:03:15;;;;;;;1.90;1.45;;;2.00;99.90;;;;;;5011885;28;20494;-77
2024/01/21 02:05:41;;;;;;;0.93;0.68;;;2.00;99.90;;;;;;5009142;28;20061;-77
2024/01/21 02:08:06;;;;;;;11.30;3.28;;;2.10;99.90;;;;;;5012701;28;20064;-76
2024/01/21 02:10:32;;;;;;;2.17;1.95;;;2.00;99.90;;;;;;5011245;28;20487;-77
2024/01/21 02:12:58;;;;;;;3.95;3.40;;;2.00;99.90;;;;;;5010641;28;20088;-77
2024/01/21 02:15:24;;;;;;;3.80;2.67;;;2.00;99.90;;;;;;5009448;28;20029;-77
2024/01/21 02:17:50;;;;;;;5.43;2.47;;;2.00;99.90;;;;;;5012167;28;20542;-76
2024/01/21 02:20:16;;;;;;;25.00;6.53;;;2.10;99.90;;;;;;5003036;28;20514;-77
2024/01/21 02:22:42;;;;;;;3.08;1.73;;;2.10;99.90;;;;;;5005708;28;20501;-76
2024/01/21 02:25:09;;;;;;;4.35;2.38;;;2.10;99.90;;;;;;5007944;28;20027;-77
2024/01/21 02:27:38;;;;;;;2.60;2.00;;;2.10;99.90;;;;;;5001632;28;20435;-77
2024/01/21 02:30:04;;;;;;;9.05;2.65;;;2.00;99.90;;;;;;4997428;28;20026;-77
2024/01/21 02:32:30;;;;;;;5.97;2.65;;;2.00;99.90;;;;;;4997822;28;20050;-77
2024/01/21 02:34:56;;;;;;;1.48;1.38;;;2.00;99.90;;;;;;4995122;28;20153;-77
2024/01/21 02:37:22;;;;;;;5.75;1.42;;;1.90;99.90;;;;;;4994123;28;20391;-77
2024/01/21 02:39:47;;;;;;;7.88;3.13;;;2.00;99.90;;;;;;5012188;28;20029;-77
2024/01/21 02:42:13;;;;;;;2.95;2.65;;;2.00;99.90;;;;;;5012232;28;20041;-77
2024/01/21 02:44:39;;;;;;;8.43;3.38;;;2.00;99.90;;;;;;5010720;28;20380;-77
2024/01/21 02:47:05;;;;;;;3.03;2.25;;;2.10;99.90;;;;;;5009756;28;20033;-77
2024/01/21 02:49:31;;;;;;;6.75;2.30;;;2.10;99.90;;;;;;5008720;28;20025;-77
2024/01/21 02:51:57;;;;;;;3.42;2.13;;;2.10;99.90;;;;;;5007881;28;20040;-77
2024/01/21 02:54:23;;;;;;;3.15;2.17;;;2.10;99.90;;;;;;5002806;28;20022;-76
2024/01/21 02:56:49;;;;;;;0.80;0.63;;;2.00;99.90;;;;;;5011320;28;20513;-77
2024/01/21 02:59:15;;;;;;;1.85;1.75;;;2.10;99.90;;;;;;5003819;28;20027;-77
2024/01/21 03:01:41;;;;;;;3.47;0.52;;;2.20;99.90;;;;;;5008765;28;20383;-75
2024/01/21 03:04:13;;;;;;;3.45;1.90;;;2.10;99.90;;;;;;5004954;28;20025;-75
2024/01/21 03:06:40;;;;;;;2.90;1.77;;;2.20;99.90;;;;;;5013698;28;20073;-76
2024/01/21 03:09:05;;;;;;;1.85;1.58;;;2.30;99.90;;;;;;5013987;28;20034;-76
2024/01/21 03:11:32;;;;;;;2.30;1.88;;;2.30;99.90;;;;;;5011764;28;20042;-76
2024/01/21 03:13:58;;;;;;;3.70;1.50;;;2.20;99.90;;;;;;5006449;28;20026;-75
2024/01/21 03:16:24;;;;;;;2.63;2.30;;;2.30;99.90;;;;;;5007348;28;20026;-76
2024/01/21 03:18:50;;;;;;;2.20;1.08;;;2.30;99.90;;;;;;5006491;28;20022;-77
2024/01/21 03:21:16;;;;;;;6.28;2.45;;;2.40;99.90;;;;;;5004614;28;20064;-76
2024/01/21 03:23:42;;;;;;;4.40;3.00;;;2.40;99.90;;;;;;5003721;28;20026;-77
2024/01/21 03:26:07;;;;;;;8.48;2.67;;;2.50;99.90;;;;;;5011959;28;20423;-77
2024/01/21 03:28:33;;;;;;;5.40;1.08;;;2.40;99.90;;;;;;4999574;28;20443;-76
2024/01/21 03:30:59;;;;;;;2.03;1.40;;;2.40;99.90;;;;;;5011860;28;20101;-76
2024/01/21 03:33:25;;;;;;;2.72;1.20;;;2.50;99.90;;;;;;4997163;28;20395;-75
2024/01/21 03:35:52;;;;;;;2.75;1.73;;;2.50;99.90;;;;;;5015847;28;20022;-75
2024/01/21 03:38:17;;;;;;;2.35;2.00;;;2.50;99.90;;;;;;5013521;28;20034;-75
2024/01/21 03:40:43;;;;;;;4.45;2.33;;;2.60;99.90;;;;;;5012553;28;20029;-75
2024/01/21 03:43:09;;;;;;;4.00;2.00;;;2.70;99.90;;;;;;5014335;28;20026;-76
2024/01/21 03:45:35;;;;;;;7.32;2.33;;;2.60;99.90;;;;;;5014227;28;20092;-75
2024/01/21 03:48:01;;;;;;;2.92;2.53;;;2.70;99.90;;;;;;5013216;28;20033;-75
2024/01/21 03:50:27;;;;;;;8.93;2.60;;;2.80;99.90;;;;;;5012060;28;20475;-75
2024/01/21 03:52:52;;;;;;;4.47;1.40;;;2.80;99.90;;;;;;5005594;28;20081;-77
2024/01/21 03:55:20;;;;;;;1.83;1.35;;;2.70;99.90;;;;;;5011484;28;20023;-76
2024/01/21 03:57:46;;;;;;;2.65;1.13;;;2.80;99.90;;;;;;4998309;28;20029;-77
2024/01/21 04:00:13;;;;;;;3.67;1.90;;;2.70;99.90;;;;;;5001667;28;20018;-77
2024/01/21 04:02:39;;;;;;;3.97;2.38;;;2.70;99.90;;;;;;5003895;28;20037;-77
2024/01/21 04:05:06;;;;;;;3.10;2.90;;;2.60;99.90;;;;;;5012790;28;20075;-76
2024/01/21 04:07:32;;;;;;;3.40;2.00;;;2.70;99.90;;;;;;5013721;28;20113;-76
2024/01/21 04:09:59;;;;;;;3.95;2.13;;;2.70;99.90;;;;;;5011590;28;20039;-76
2024/01/21 04:12:25;;;;;;;1.88;1.70;;;2.70;99.90;;;;;;5011573;28;20100;-75
2024/01/21 04:14:51;;;;;;;1.38;1.05;;;2.70;99.90;;;;;;5005768;28;20030;-75
2024/01/21 04:17:17;;;;;;;6.93;2.92;;;2.70;99.90;;;;;;5008508;28;20026;-75
2024/01/21 04:19:43;;;;;;;7.30;2.97;;;2.70;99.90;;;;;;5010435;28;20026;-75
2024/01/21 04:22:09;;;;;;;8.57;3.33;;;2.60;99.90;;;;;;5019992;28;20044;-75
2024/01/21 04:24:35;;;;;;;7.53;2.97;;;2.60;99.90;;;;;;5000329;28;20395;-75
2024/01/21 04:27:01;;;;;;;2.78;1.80;;;2.50;99.90;;;;;;5000773;28;20105;-76
2024/01/21 04:29:26;;;;;;;3.00;2.35;;;2.50;99.90;;;;;;5010855;28;20232;-75
2024/01/21 04:31:52;;;;;;;7.28;3.00;;;2.50;99.90;;;;;;4996770;28;20085;-75
2024/01/21 04:34:18;;;;;;;2.50;2.25;;;2.60;99.90;;;;;;5000096;28;20030;-75
2024/01/21 04:36:44;;;;;;;3.72;1.73;;;2.60;99.90;;;;;;5014427;28;20026;-76
2024/01/21 04:39:10;;;;;;;5.85;2.97;;;2.50;99.90;;;;;;4996922;28;20081;-75
2024/01/21 04:41:36;;;;;;;3.53;1.77;;;2.50;99.90;;;;;;5013965;28;20037;-76
2024/01/21 04:44:02;;;;;;;1.75;1.15;;;2.50;99.90;;;;;;5013501;28;20036;-75
2024/01/21 04:46:27;;;;;;;3.20;1.55;;;2.60;99.90;;;;;;5011652;28;20022;-75
2024/01/21 04:48:53;;;;;;;6.20;3.50;;;2.50;99.90;;;;;;5011332;28;20044;-75
2024/01/21 04:51:20;;;;;;;4.28;2.45;;;2.50;99.90;;;;;;5013557;28;20068;-75
2024/01/21 04:53:45;;;;;;;1.13;0.90;;;2.50;99.90;;;;;;5009995;28;20035;-76
2024/01/21 04:56:18;;;;;;;9.75;2.78;;;2.50;99.90;;;;;;4997007;28;20033;-75
2024/01/21 04:58:45;;;;;;;5.45;2.75;;;2.50;99.90;;;;;;5023405;28;20113;-75
2024/01/21 05:01:12;;;;;;;4.85;2.25;;;2.50;99.90;;;;;;4994256;28;20022;-75
2024/01/21 05:03:38;;;;;;;4.15;3.03;;;2.50;99.90;;;;;;4999971;28;20094;-75
2024/01/21 05:06:05;;;;;;;5.65;2.75;;;2.50;99.90;;;;;;5013405;28;20045;-76
2024/01/21 05:08:30;;;;;;;6.50;3.03;;;2.40;99.90;;;;;;5012312;28;20467;-76
2024/01/21 05:10:57;;;;;;;7.43;2.67;;;2.40;99.90;;;;;;5011284;28;20034;-76
2024/01/21 05:13:22;;;;;;;6.15;2.97;;;2.40;99.90;;;;;;5009835;28;20030;-75
2024/01/21 05:15:48;;;;;;;2.08;1.33;;;2.40;99.90;;;;;;5008775;28;20049;-75
2024/01/21 05:18:14;;;;;;;4.22;2.30;;;2.40;99.90;;;;;;5001616;28;20053;-75
2024/01/21 05:20:40;;;;;;;5.25;3.47;;;2.30;99.90;;;;;;5005558;28;20026;-75
2024/01/21 05:23:06;;;;;;;2.28;1.25;;;2.40;99.90;;;;;;5009744;28;20038;-75
2024/01/21 05:25:32;;;;;;;2.67;2.33;;;2.40;99.90;;;;;;5000434;28;20104;-75
2024/01/21 05:27:58;;;;;;;3.95;2.00;;;2.40;99.90;;;;;;5011873;28;20038;-75
2024/01/21 05:30:23;;;;;;;5.40;2.55;;;2.40;99.90;;;;;;4996788;28;20085;-75
2024/01/21 05:32:51;;;;;;;4.85;1.92;;;2.50;99.90;;;;;;4994772;28;20042;-76
2024/01/21 05:35:18;;;;;;;2.92;2.25;;;2.40;99.90;;;;;;5007544;28;20029;-75
2024/01/21 05:37:44;;;;;;;3.40;2.20;;;2.40;99.90;;;;;;5012288;28;20026;-76
2024/01/21 05:40:10;;;;;;;6.00;2.90;;;2.50;99.90;;;;;;5013861;28;20085;-76
2024/01/21 05:42:36;;;;;;;1.00;0.82;;;2.50;99.90;;;;;;5011905;28;20026;-75
2024/01/21 05:45:03;;;;;;;4.70;2.17;;;2.50;99.90;;;;;;5011544;28;20104;-76
2024/01/21 05:47:29;;;;;;;1.98;1.58;;;2.60;99.90;;;;;;5009345;28;20030;-76
2024/01/21 05:49:55;;;;;;;2.05;1.17;;;2.50;99.90;;;;;;5007503;28;20036;-75
2024/01/21 05:52:21;;;;;;;5.95;2.45;;;2.40;99.90;;;;;;5008752;28;20076;-75
2024/01/21 05:54:46;;;;;;;2.08;1.67;;;2.40;99.90;;;;;;5003377;28;20047;-76
2024/01/21 05:57:13;;;;;;;8.77;2.20;;;2.50;99.90;;;;;;5008722;28;20033;-76
2024/01/21 05:59:40;;;;;;;5.75;2.63;;;2.60;99.90;;;;;;4995288;28;20026;-76
2024/01/21 06:02:07;;;;;;;3.92;2.17;;;2.60;99.90;;;;;;5012163;28;20554;-76
2024/01/21 06:04:33;;;;;;;1.60;1.15;;;2.60;99.90;;;;;;5013723;28;20045;-75
2024/01/21 06:07:00;;;;;;;3.30;1.70;;;2.60;99.90;;;;;;5011086;28;20033;-75
2024/01/21 06:09:25;;;;;;;3.78;2.90;;;2.70;99.90;;;;;;5011718;28;20049;-75
2024/01/21 06:11:51;;;;;;;2.42;1.98;;;2.70;99.90;;;;;;5005200;28;20043;-77
2024/01/21 06:14:18;;;;;;;3.15;1.60;;;2.60;99.90;;;;;;5011508;28;20045;-75
2024/01/21 06:16:44;;;;;;;7.00;3.33;;;2.60;99.90;;;;;;5016839;28;20130;-76
2024/01/21 06:19:10;;;;;;;0.55;0.55;;;2.50;99.90;;;;;;4995169;28;20088;-76
2024/01/21 06:21:44;;;;;;;0.20;0.20;;;2.60;99.90;;;;;;4999301;28;20475;-76
2024/01/21 06:24:13;;;;;;;4.20;1.55;;;2.70;99.90;;;;;;4997030;28;20057;-76
2024/01/21 06:26:40;;;;;;;0.70;0.70;;;2.70;99.90;;;;;;4997247;28;20034;-76
2024/01/21 06:29:09;;;;;;;1.73;1.23;;;2.80;99.90;;;;;;4998698;28;20084;-76
2024/01/21 06:31:35;;;;;;;6.55;2.28;;;2.70;99.90;;;;;;5010280;28;20061;-76
2024/01/21 06:34:01;;;;;;;8.18;2.75;;;2.70;99.90;;;;;;4994389;28;20065;-77
2024/01/21 06:36:27;;;;;;;1.80;0.85;;;2.60;99.90;;;;;;5002500;28;20076;-76
2024/01/21 06:38:53;;;;;;;7.55;2.78;;;2.60;99.90;;;;;;5009838;28;20031;-76
2024/01/21 06:41:19;;;;;;;1.13;1.05;;;2.60;99.90;;;;;;5011901;28;20030;-76
2024/01/21 06:43:44;;;;;;;2.10;1.27;;;2.60;99.90;;;;;;5011651;28;20497;-76
2024/01/21 06:46:12;;;;;;;5.10;2.60;;;2.60;99.90;;;;;;5007925;28;20022;-76
2024/01/21 06:48:37;;;;;;;4.10;1.65;;;2.50;99.90;;;;;;5012962;28;20551;-77
2024/01/21 06:51:10;;;;;;;4.75;3.22;;;2.60;99.90;;;;;;5004291;28;20030;-77
2024/01/21 06:53:38;;;;;;;2.65;1.00;;;2.60;99.90;;;;;;5004452;28;20517;-77
2024/01/21 06:56:07;;;;;;;4.03;2.05;;;2.70;99.90;;;;;;4995653;28;20117;-74
2024/01/21 06:58:36;;;;;;;2.15;1.63;;;2.70;99.90;;;;;;4996328;28;20030;-76
2024/01/21 07:01:03;;;;;;;5.00;1.65;;;2.80;99.90;;;;;;4999781;28;20503;-77
2024/01/21 07:03:29;;;;;;;1.65;0.85;;;2.70;99.90;;;;;;5011854;28;20041;-77
2024/01/21 07:05:55;;;;;;;2.20;1.55;;;2.60;99.90;;;;;;5011627;28;20022;-76
2024/01/21 07:08:21;;;;;;;4.65;2.15;;;2.70;99.90;;;;;;5008166;28;20108;-76
2024/01/21 07:10:47;;;;;;;5.47;1.90;;;2.60;99.90;;;;;;5009341;28;20081;-77
2024/01/21 07:13:13;;;;;;;2.30;1.60;;;2.70;99.90;;;;;;5008055;28;20033;-76
2024/01/21 07:15:42;;;;;;;5.45;1.30;;;2.70;99.90;;;;;;5022496;28;20025;-76
2024/01/21 07:18:09;;;;;;;2.15;1.20;;;2.70;99.90;;;;;;5001961;28;20026;-76
2024/01/21 07:20:35;;;;;;;3.13;2.05;;;2.70;99.90;;;;;;5011057;28;20506;-77
2024/01/21 07:23:00;;;;;;;4.50;2.78;;;2.70;99.90;;;;;;5007823;28;20030;-76
2024/01/21 07:25:26;;;;;;;4.13;2.35;;;2.80;99.90;;;;;;4999745;28;20050;-76
2024/01/21 07:27:52;;;;;;;1.00;0.95;;;2.80;99.90;;;;;;5008130;28;20403;-76
2024/01/21 07:30:18;;;;;;;0.70;0.68;;;3.00;99.90;;;;;;4995302;28;20713;-76
2024/01/21 07:32:44;;;;;;;2.13;1.33;;;2.90;99.90;;;;;;5007868;28;20034;-76
2024/01/21 07:35:10;;;;;;;0.10;0.10;;;3.00;99.90;;;;;;4999181;28;20026;-76
2024/01/21 07:37:39;;;;;;;4.22;2.42;;;3.10;99.90;;;;;;5024753;28;20029;-76
2024/01/21 07:40:06;;;;;;;0.52;0.40;;;3.10;99.90;;;;;;5010399;28;20484;-76
2024/01/21 07:42:32;;;;;;;1.58;1.45;;;3.10;99.90;;;;;;5010485;28;20034;-76
2024/01/21 07:44:58;;;;;;;2.53;1.67;;;3.10;99.90;;;;;;5009509;28;20022;-76
2024/01/21 07:47:25;;;;;;;4.80;2.75;;;3.10;99.90;;;;;;5008100;28;20057;-76
2024/01/21 07:49:51;;;;;;;2.28;1.27;;;3.20;99.90;;;;;;5007313;28;20030;-76
2024/01/21 07:52:17;;;;;;;1.70;1.15;;;3.20;99.90;;;;;;5009186;28;20041;-76
2024/01/21 07:54:43;;;;;;;3.72;1.73;;;3.40;99.90;;;;;;5000551;28;20499;-76
2024/01/21 07:57:10;;;;;;;4.75;2.17;;;3.20;99.90;;;;;;5010230;28;20026;-76
2024/01/21 07:59:35;;;;;;;3.83;2.35;;;3.10;99.90;;;;;;5005144;28;20077;-75
2024/01/21 08:02:01;;;;;;;10.90;2.50;;;3.20;99.90;;;;;;4997128;28;20062;-75
2024/01/21 08:04:27;;;;;;;7.00;2.97;;;3.20;99.90;;;;;;5006397;28;20025;-76
2024/01/21 08:06:53;;;;;;;5.50;2.88;;;3.30;99.90;;;;;;5014676;28;20036;-76
2024/01/21 08:09:19;;;;;;;0.82;0.68;;;3.20;99.90;;;;;;5015088;28;20033;-75
2024/01/21 08:11:44;;;;;;;5.22;2.72;;;3.30;99.90;;;;;;5008165;28;20042;-78
2024/01/21 08:14:11;;;;;;;2.25;1.85;;;3.40;99.90;;;;;;5011199;28;20038;-76
2024/01/21 08:16:37;;;;;;;1.50;1.40;;;3.30;99.90;;;;;;5004866;28;20136;-76
2024/01/21 08:19:04;;;;;;;3.03;2.15;;;3.30;99.90;;;;;;5007797;28;20030;-76
2024/01/21 08:21:30;;;;;;;6.85;1.55;;;3.40;99.90;;;;;;5010812;28;20030;-77
2024/01/21 08:23:56;;;;;;;4.72;2.15;;;3.50;99.90;;;;;;5004827;28;20482;-77
2024/01/21 08:26:22;;;;;;;7.00;2.92;;;3.50;99.90;;;;;;4999975;28;20076;-77
2024/01/21 08:28:47;;;;;;;1.65;1.20;;;3.50;99.90;;;;;;5000787;28;20026;-77
2024/01/21 08:31:14;;;;;;;2.17;1.63;;;3.40;99.90;;;;;;5009572;28;20108;-76
2024/01/21 08:33:40;;;;;;;13.63;4.65;;;3.50;99.90;;;;;;5021673;28;20038;-77
2024/01/21 08:36:07;;;;;;;1.38;1.20;;;3.50;99.90;;;;;;5014144;28;20026;-77
2024/01/21 08:38:33;;;;;;;6.78;3.55;;;3.40;99.90;;;;;;5013560;28;20475;-77
2024/01/21 08:40:59;;;;;;;2.47;1.58;;;3.40;99.90;;;;;;5013402;28;20022;-76
2024/01/21 08:43:25;;;;;;;7.28;1.90;;;3.50;99.90;;;;;;4995178;28;20033;-77
2024/01/21 08:45:51;;;;;;;3.53;1.65;;;3.60;99.90;;;;;;5021338;28;20037;-76
2024/01/21 08:48:17;;;;;;;9.55;3.60;;;3.60;99.90;;;;;;5024080;28;20018;-76
2024/01/21 08:50:43;;;;;;;9.15;4.63;;;3.40;99.90;;;;;;5011062;28;20037;-78
2024/01/21 08:53:09;;;;;;;21.58;2.97;;;3.40;99.90;;;;;;5018220;28;20100;-77
2024/01/21 08:55:34;;;;;;;1.33;1.23;;;3.40;99.90;;;;;;5006508;28;20222;-75
2024/01/21 08:58:01;;;;;;;8.02;4.82;;;3.40;99.90;;;;;;5016751;28;20026;-76
2024/01/21 09:00:27;;;;;;;7.13;4.18;;;3.50;99.90;;;;;;5008353;28;20018;-76
2024/01/21 09:02:53;;;;;;;2.83;1.98;;;3.50;99.90;;;;;;5009900;28;20391;-77
2024/01/21 09:05:19;;;;;;;2.03;1.63;;;3.50;99.90;;;;;;5011877;28;20034;-75
2024/01/21 09:07:46;;;;;;;2.72;1.05;;;3.60;99.90;;;;;;5011660;28;20033;-77
2024/01/21 09:10:21;;;;;;;5.82;3.17;;;3.60;99.90;;;;;;5005706;28;20467;-76
2024/01/21 09:12:47;;;;;;;3.75;2.58;;;3.60;99.90;;;;;;5010231;28;20030;-77
2024/01/21 09:15:13;;;;;;;3.75;1.95;;;3.70;99.90;;;;;;5007256;28;20033;-76
2024/01/21 09:17:40;;;;;;;12.93;4.47;;;3.60;99.90;;;;;;5009046;28;20490;-76
2024/01/21 09:20:06;;;;;;;12.60;3.88;;;3.70;99.90;;;;;;5001761;28;20030;-75
2024/01/21 09:22:32;;;;;;;4.70;1.75;;;3.70;99.90;;;;;;5013348;28;20036;-77
2024/01/21 09:24:58;;;;;;;2.78;2.35;;;3.70;99.90;;;;;;5006089;28;20018;-77
2024/01/21 09:27:25;;;;;;;7.53;2.33;;;3.80;99.90;;;;;;5013345;28;20022;-76
2024/01/21 09:29:51;;;;;;;8.23;4.45;;;3.80;99.90;;;;;;5011652;28;20026;-77
2024/01/21 09:32:17;;;;;;;8.15;2.78;;;4.00;99.90;;;;;;5012056;28;20031;-76
2024/01/21 09:34:43;;;;;;;8.02;2.63;;;4.00;99.90;;;;;;5003334;28;20014;-77
2024/01/21 09:37:10;;;;;;;4.80;2.55;;;4.00;99.90;;;;;;5011078;28;20037;-77
2024/01/21 09:39:37;;;;;;;5.40;3.03;;;4.20;99.90;;;;;;5011132;28;20478;-76
2024/01/21 09:42:07;;;;;;;5.60;2.13;;;4.20;99.90;;;;;;5012535;28;20025;-76
2024/01/21 09:44:33;;;;;;;8.30;3.95;;;4.20;99.90;;;;;;5009867;28;20084;-77
2024/01/21 09:47:00;;;;;;;3.88;2.08;;;4.20;99.90;;;;;;5010498;28;20033;-77
2024/01/21 09:49:27;;;;;;;7.00;2.97;;;4.20;99.90;;;;;;5004082;28;20030;-77
2024/01/21 09:51:54;;;;;;;3.85;3.08;;;4.40;99.90;;;;;;4993157;28;20033;-77
2024/01/21 09:54:21;;;;;;;1.30;1.20;;;4.30;99.90;;;;;;4999243;28;20026;-76
2024/01/21 09:56:47;;;;;;;4.60;2.95;;;4.40;99.90;;;;;;5005397;28;20110;-77
2024/01/21 09:59:13;;;;;;;12.90;2.47;;;4.50;99.90;;;;;;5006090;28;20033;-77
2024/01/21 10:01:40;;;;;;;7.78;2.10;;;4.50;99.90;;;;;;5009227;28;20025;-77
2024/01/21 10:04:10;;;;;;;2.10;1.17;;;4.60;99.90;;;;;;5004360;28;20359;-77
2024/01/21 10:06:36;;;;;;;6.38;3.75;;;4.60;99.90;;;;;;5001156;28;20026;-77
2024/01/21 10:09:19;;;;;;;7.38;1.35;;;4.80;99.90;;;;;;5004887;28;20076;-76
2024/01/21 10:11:50;;;;;;;1.20;1.10;;;4.80;99.90;;;;;;5006676;28;20039;-77
2024/01/21 10:14:16;;;;;;;3.83;2.50;;;4.90;99.90;;;;;;5010591;28;20088;-76
2024/01/21 10:16:43;;;;;;;4.50;1.98;;;4.90;99.90;;;;;;5005442;28;20022;-77
2024/01/21 10:19:14;;;;;;;2.83;2.15;;;5.00;99.90;;;;;;5007632;28;20237;-77
2024/01/21 10:21:40;;;;;;;3.60;2.40;;;5.00;99.90;;;;;;5012224;28;20030;-76
2024/01/21 10:24:08;;;;;;;8.63;4.10;;;5.10;99.90;;;;;;5021915;28;20041;-76
2024/01/21 10:26:41;;;;;;;18.65;3.15;;;5.20;99.90;;;;;;5014001;28;20385;-76
2024/01/21 10:29:07;;;;;;;3.50;1.73;;;5.30;99.90;;;;;;5011291;28;20021;-75
2024/01/21 10:31:33;;;;;;;4.03;2.28;;;5.30;99.90;;;;;;5005193;28;20030;-75
2024/01/21 10:34:02;;;;;;;5.28;2.47;;;5.30;99.90;;;;;;5006881;28;20132;-76
2024/01/21 10:36:36;;;;;;;1.75;1.63;;;5.30;99.90;;;;;;5006316;28;20030;-76
2024/01/21 10:39:06;;;;;;;3.80;3.00;;;5.30;99.90;;;;;;5001990;28;20384;-76
2024/01/21 10:41:33;;;;;;;8.75;3.58;;;5.40;99.90;;;;;;5002464;28;20392;-75
2024/01/21 10:44:03;;;;;;;7.13;2.85;;;5.30;99.90;;;;;;5017387;28;20041;-76
2024/01/21 10:46:33;;;;;;;7.72;3.20;;;5.20;99.90;;;;;;5018757;28;20033;-76
2024/01/21 10:48:59;;;;;;;1.90;1.25;;;5.20;99.90;;;;;;5012116;28;20027;-76
2024/01/21 10:51:26;;;;;;;3.92;2.15;;;5.40;99.90;;;;;;5014863;28;20033;-75
2024/01/21 10:53:57;;;;;;;6.55;3.35;;;5.30;99.90;;;;;;5006810;28;20046;-75
2024/01/21 10:56:25;;;;;;;6.47;2.42;;;5.30;99.90;;;;;;5018427;28;20041;-75
2024/01/21 10:58:52;;;;;;;5.93;2.97;;;5.40;99.90;;;;;;5018377;28;20033;-75
2024/01/21 11:01:19;;;;;;;6.20;2.67;;;5.30;99.90;;;;;;5010801;28;20027;-74
2024/01/21 11:03:48;;;;;;;2.88;1.45;;;5.30;99.90;;;;;;4999427;28;20116;-75
2024/01/21 11:06:15;;;;;;;7.38;4.57;;;5.30;99.90;;;;;;5003584;28;20030;-74
2024/01/21 11:08:45;;;;;;;4.90;2.80;;;5.40;99.90;;;;;;5008179;28;20034;-75
2024/01/21 11:11:11;;;;;;;3.40;2.17;;;5.40;99.90;;;;;;5006542;28;20139;-75
2024/01/21 11:13:45;;;;;;;3.92;3.40;;;5.40;99.90;;;;;;5004896;28;20510;-74
2024/01/21 11:16:31;;;;;;;3.63;1.80;;;5.30;99.90;;;;;;5008556;28;20040;-75
2024/01/21 11:18:57;;;;;;;10.15;4.07;;;5.40;99.90;;;;;;5004786;28;20034;-74
2024/01/21 11:21:27;;;;;;;4.43;1.42;;;5.50;99.90;;;;;;5000002;28;20022;-75
2024/01/21 11:24:05;;;;;;;5.07;1.98;;;5.50;99.90;;;;;;5002264;28;20022;-75
2024/01/21 11:26:35;;;;;;;3.70;1.98;;;5.50;99.90;;;;;;5000503;28;20088;-75
2024/01/21 11:29:20;;;;;;;3.80;2.38;;;5.50;99.90;;;;;;5006695;28;20034;-73
2024/01/21 11:32:11;;;;;;;6.28;2.20;;;5.60;99.90;;;;;;5008426;28;20022;-75
2024/01/21 11:34:40;;;;;;;8.43;2.28;;;5.60;99.90;;;;;;5013625;28;20127;-74
2024/01/21 11:37:13;;;;;;;10.00;3.50;;;5.80;99.90;;;;;;5013185;28;20018;-74
2024/01/21 11:39:41;;;;;;;3.97;2.55;;;5.70;99.90;;;;;;4999296;28;20030;-79
2024/01/21 11:42:07;;;;;;;6.18;2.65;;;5.70;99.90;;;;;;5013910;28;20045;-80
2024/01/21 11:44:34;;;;;;;6.60;1.95;;;5.60;99.90;;;;;;5011980;28;20101;-80
2024/01/21 11:47:03;;;;;;;1.85;1.58;;;5.70;99.90;;;;;;5012929;28;20030;-80
2024/01/21 11:49:35;;;;;;;3.42;1.83;;;5.70;99.90;;;;;;5007881;28;20026;-80
2024/01/21 11:52:06;;;;;;;4.68;2.28;;;5.80;99.90;;;;;;5010930;28;20042;-80
2024/01/21 11:54:33;;;;;;;9.88;3.53;;;5.80;99.90;;;;;;5011238;28;20077;-80
2024/01/21 11:57:00;;;;;;;3.25;1.85;;;5.90;99.90;;;;;;4997308;28;20033;-77
2024/01/21 11:59:26;;;;;;;2.58;1.55;;;5.90;99.90;;;;;;4997449;28;20522;-79
2024/01/21 12:01:58;;;;;;;7.68;2.75;;;5.90;99.90;;;;;;4997115;28;20391;-80
2024/01/21 12:04:28;;;;;;;7.65;1.75;;;5.90;99.90;;;;;;5007391;28;20037;-80
2024/01/21 12:06:54;;;;;;;3.30;2.30;;;5.90;99.90;;;;;;5012866;28;20021;-80
2024/01/21 12:09:21;;;;;;;2.55;1.08;;;5.90;99.90;;;;;;5013046;28;20038;-80
2024/01/21 12:11:49;;;;;;;7.75;3.25;;;5.90;99.90;;;;;;5007854;28;20026;-80
2024/01/21 12:14:16;;;;;;;7.45;2.88;;;5.80;99.90;;;;;;5010766;28;20034;-80
2024/01/21 12:16:42;;;;;;;2.55;1.95;;;5.80;99.90;;;;;;5004044;28;20018;-80
2024/01/21 12:19:09;;;;;;;1.63;1.27;;;5.90;99.90;;;;;;5008726;28;20057;-80
2024/01/21 12:21:35;;;;;;;10.43;2.00;;;6.00;99.90;;;;;;5002429;28;20049;-80
2024/01/21 12:24:02;;;;;;;4.03;2.50;;;5.90;99.90;;;;;;5020240;28;20029;-79
2024/01/21 12:26:28;;;;;;;2.40;1.92;;;6.00;99.90;;;;;;4999619;28;20018;-80
2024/01/21 12:28:59;;;;;;;6.25;2.83;;;6.00;99.90;;;;;;5011434;28;20030;-80
2024/01/21 12:31:29;;;;;;;7.65;3.35;;;6.00;99.90;;;;;;4997263;28;20026;-80
2024/01/21 12:33:57;;;;;;;5.05;2.75;;;6.00;99.90;;;;;;4998376;28;20050;-79
2024/01/21 12:36:23;;;;;;;3.58;1.63;;;6.00;99.90;;;;;;5014252;28;20378;-80
2024/01/21 12:38:50;;;;;;;13.23;5.25;;;6.00;99.90;;;;;;5011306;28;20037;-80
2024/01/21 12:41:17;;;;;;;5.10;2.58;;;6.00;99.90;;;;;;5014304;28;20025;-78
2024/01/21 12:43:43;;;;;;;2.92;1.98;;;5.90;99.90;;;;;;5013267;28;20057;-80
2024/01/21 12:46:10;;;;;;;13.23;2.88;;;6.00;99.90;;;;;;5010191;28;20565;-80
2024/01/21 12:48:36;;;;;;;5.07;3.28;;;6.10;99.90;;;;;;5011858;28;20037;-79
2024/01/21 12:51:02;;;;;;;4.45;3.10;;;6.10;99.90;;;;;;5010829;28;20023;-79
2024/01/21 12:53:28;;;;;;;9.70;2.28;;;6.20;99.90;;;;;;5006817;28;20038;-80
2024/01/21 12:55:54;;;;;;;9.73;4.20;;;6.20;99.90;;;;;;4998229;28;20098;-79